createdAt,value
2022-10-12T00:00:50.306Z,2.47
2022-10-12T00:03:18.728Z,3.00
2022-10-12T00:05:51.290Z,3.47
2022-10-12T00:08:19.004Z,3.13
2022-10-12T00:10:46.676Z,2.60
2022-10-12T00:13:14.371Z,3.17
2022-10-12T00:15:42.776Z,3.10
2022-10-12T00:18:10.498Z,2.88
2022-10-12T00:20:38.535Z,3.58
2022-10-12T00:23:07.769Z,4.00
2022-10-12T00:25:37.669Z,3.60
2022-10-12T00:28:06.057Z,3.78
2022-10-12T00:30:34.658Z,2.78
2022-10-12T00:33:02.408Z,3.17
2022-10-12T00:35:30.199Z,2.85
2022-10-12T00:37:57.999Z,3.50
2022-10-12T00:40:27.072Z,3.15
2022-10-12T00:42:54.802Z,2.67
2022-10-12T00:45:24.857Z,2.97
2022-10-12T00:47:57.469Z,3.58
2022-10-12T00:50:30.409Z,3.17
2022-10-12T00:53:05.041Z,3.10
2022-10-12T00:58:09.917Z,3.10
2022-10-12T01:00:40.292Z,3.55
2022-10-12T01:03:11.928Z,2.90
2022-10-12T01:05:41.471Z,3.72
2022-10-12T01:08:09.610Z,3.90
2022-10-12T01:10:38.764Z,3.50
2022-10-12T01:13:07.800Z,3.65
2022-10-12T01:15:44.278Z,2.75
2022-10-12T01:18:20.525Z,3.00
2022-10-12T01:21:06.822Z,2.85
2022-10-12T01:24:42.528Z,3.13
2022-10-12T01:27:40.509Z,2.88
2022-10-12T01:30:17.509Z,3.28
2022-10-12T01:33:03.365Z,3.47
2022-10-12T01:35:43.158Z,2.85
2022-10-12T01:38:28.889Z,3.40
2022-10-12T01:41:07.929Z,3.75
2022-10-12T01:43:38.338Z,2.80
2022-10-12T01:46:47.368Z,3.17
2022-10-12T01:49:20.225Z,3.40
2022-10-12T01:52:04.410Z,3.90
2022-10-12T01:54:54.507Z,3.40
2022-10-12T01:57:34.314Z,3.95
2022-10-12T02:00:08.786Z,4.07
2022-10-12T02:02:54.548Z,4.57
2022-10-12T02:05:36.799Z,3.83
2022-10-12T02:08:14.133Z,3.45
2022-10-12T02:10:48.989Z,3.42
2022-10-12T02:13:23.059Z,3.80
2022-10-12T02:15:54.206Z,3.90
2022-10-12T02:18:25.582Z,4.13
2022-10-12T02:20:59.293Z,3.78
2022-10-12T02:23:29.684Z,3.90
2022-10-12T02:26:01.452Z,3.22
2022-10-12T02:28:35.451Z,3.50
2022-10-12T02:31:16.722Z,3.20
2022-10-12T02:33:58.128Z,3.83
2022-10-12T02:36:38.183Z,3.55
2022-10-12T02:39:15.632Z,3.30
2022-10-12T02:41:50.690Z,3.75
2022-10-12T02:44:27.090Z,4.00
2022-10-12T02:46:58.100Z,3.90
2022-10-12T02:49:31.670Z,3.40
2022-10-12T02:52:00.757Z,3.30
2022-10-12T02:54:30.568Z,3.97
2022-10-12T02:56:58.386Z,3.40
2022-10-12T02:59:26.458Z,3.60
2022-10-12T03:01:54.129Z,3.92
2022-10-12T03:04:21.852Z,3.47
2022-10-12T03:06:51.274Z,3.40
2022-10-12T03:09:18.978Z,3.78
2022-10-12T03:11:46.726Z,4.05
2022-10-12T03:14:17.022Z,3.70
2022-10-12T03:16:46.417Z,3.35
2022-10-12T03:19:14.804Z,3.72
2022-10-12T03:21:42.976Z,4.00
2022-10-12T03:24:12.192Z,3.42
2022-10-12T03:26:39.894Z,3.40
2022-10-12T03:29:08.447Z,3.60
2022-10-12T03:31:36.187Z,3.78
2022-10-12T03:34:04.122Z,3.75
2022-10-12T03:36:32.142Z,3.92
2022-10-12T03:39:00.145Z,4.53
2022-10-12T03:41:29.201Z,4.32
2022-10-12T03:43:56.920Z,4.13
2022-10-12T03:46:24.956Z,2.83
2022-10-12T03:48:52.682Z,3.88
2022-10-12T03:51:21.096Z,3.70
2022-10-12T03:53:48.801Z,3.92
2022-10-12T03:56:16.756Z,3.63
2022-10-12T03:58:45.788Z,4.03
2022-10-12T04:01:13.491Z,3.60
2022-10-12T04:03:41.443Z,3.55
2022-10-12T04:06:09.216Z,4.18
2022-10-12T04:08:37.754Z,3.95
2022-10-12T04:11:07.611Z,4.32
2022-10-12T04:13:35.374Z,3.72
2022-10-12T04:16:06.828Z,3.40
2022-10-12T04:18:35.147Z,4.30
2022-10-12T04:21:05.330Z,3.42
2022-10-12T04:23:33.090Z,4.85
2022-10-12T04:26:00.849Z,4.65
2022-10-12T04:28:28.660Z,3.30
2022-10-12T04:30:56.417Z,4.90
2022-10-12T04:33:25.633Z,4.60
2022-10-12T04:35:53.596Z,3.95
2022-10-12T04:38:21.322Z,3.63
2022-10-12T04:40:49.902Z,5.32
2022-10-12T04:43:18.660Z,4.07
2022-10-12T04:45:54.238Z,3.90
2022-10-12T04:48:22.195Z,3.72
2022-10-12T04:50:51.744Z,3.70
2022-10-12T04:53:19.937Z,3.90
2022-10-12T04:55:47.940Z,4.38
2022-10-12T04:58:15.863Z,3.83
2022-10-12T05:00:43.635Z,3.67
2022-10-12T05:03:11.522Z,3.80
2022-10-12T05:05:39.243Z,4.15
2022-10-12T05:08:08.313Z,4.20
2022-10-12T05:10:37.439Z,4.90
2022-10-12T05:13:05.182Z,4.28
2022-10-12T05:15:33.181Z,3.63
2022-10-12T05:18:01.203Z,3.45
2022-10-12T05:20:28.872Z,4.53
2022-10-12T05:22:58.085Z,3.65
2022-10-12T05:25:29.659Z,4.53
2022-10-12T05:27:57.464Z,4.60
2022-10-12T05:30:25.653Z,4.00
2022-10-12T05:32:53.392Z,3.83
2022-10-12T05:35:21.308Z,4.28
2022-10-12T05:37:49.015Z,3.90
2022-10-12T05:40:17.182Z,4.40
2022-10-12T05:42:46.434Z,4.00
2022-10-12T05:45:14.181Z,4.47
2022-10-12T05:47:42.170Z,3.95
2022-10-12T05:50:10.969Z,4.85
2022-10-12T05:52:39.027Z,5.20
2022-10-12T05:55:09.646Z,3.85
2022-10-12T05:57:37.786Z,4.70
2022-10-12T06:00:11.340Z,5.22
2022-10-12T06:02:39.475Z,4.20
2022-10-12T06:05:08.398Z,4.65
2022-10-12T06:07:37.912Z,4.20
2022-10-12T06:10:07.338Z,4.25
2022-10-12T06:12:35.263Z,4.60
2022-10-12T06:15:03.657Z,3.60
2022-10-12T06:17:33.181Z,4.25
2022-10-12T06:20:00.909Z,5.03
2022-10-12T06:22:28.787Z,4.43
2022-10-12T06:24:56.569Z,4.50
2022-10-12T06:27:25.111Z,3.92
2022-10-12T06:29:53.144Z,4.13
2022-10-12T06:32:20.881Z,4.68
2022-10-12T06:34:49.925Z,4.20
2022-10-12T06:37:44.286Z,4.53
2022-10-12T06:40:06.885Z,3.95
2022-10-12T06:42:34.684Z,4.10
2022-10-12T06:45:02.406Z,4.10
2022-10-12T06:47:30.645Z,4.00
2022-10-12T06:49:59.738Z,4.80
2022-10-12T06:52:27.444Z,4.25
2022-10-12T06:54:55.150Z,3.65
2022-10-12T06:57:23.356Z,4.18
2022-10-12T06:59:51.073Z,4.47
2022-10-12T07:02:19.041Z,4.30
2022-10-12T07:04:51.541Z,4.03
2022-10-12T07:07:24.468Z,4.45
2022-10-12T07:09:52.929Z,3.83
2022-10-12T07:12:20.650Z,4.45
2022-10-12T07:14:48.340Z,4.20
2022-10-12T07:17:16.302Z,3.47
2022-10-12T07:19:44.038Z,4.63
2022-10-12T07:22:11.725Z,3.95
2022-10-12T07:24:41.024Z,4.50
2022-10-12T07:27:12.079Z,4.03
2022-10-12T07:29:41.504Z,4.55
2022-10-12T07:32:09.482Z,4.13
2022-10-12T07:34:37.260Z,4.88
2022-10-12T07:37:05.494Z,4.65
2022-10-12T07:39:33.264Z,3.80
2022-10-12T07:42:02.797Z,3.85
2022-10-12T07:44:30.697Z,4.32
2022-10-12T07:46:58.410Z,4.28
2022-10-12T07:49:26.229Z,4.50
2022-10-12T07:51:53.938Z,4.32
2022-10-12T07:54:28.208Z,4.57
2022-10-12T07:56:57.573Z,4.28
2022-10-12T07:59:27.855Z,4.30
2022-10-12T08:01:55.671Z,4.25
2022-10-12T08:04:23.581Z,4.78
2022-10-12T08:06:51.296Z,4.22
2022-10-12T08:09:19.063Z,4.00
2022-10-12T08:11:46.960Z,4.13
2022-10-12T08:14:16.829Z,4.68
2022-10-12T08:16:53.310Z,4.40
2022-10-12T08:19:21.388Z,4.45
2022-10-12T08:21:50.526Z,5.10
2022-10-12T08:35:53.861Z,4.93
2022-10-12T08:38:21.559Z,4.68
2022-10-12T08:40:56.384Z,4.32
2022-10-12T08:43:46.482Z,5.68
2022-10-12T08:46:14.454Z,4.07
2022-10-12T08:48:56.610Z,4.15
2022-10-12T08:51:28.344Z,3.78
2022-10-12T08:54:11.396Z,4.18
2022-10-12T08:56:41.084Z,4.38
2022-10-12T09:02:52.028Z,4.13
2022-10-12T09:05:37.639Z,5.30
2022-10-12T09:08:15.225Z,3.95
2022-10-12T09:10:48.129Z,4.10
2022-10-12T09:13:35.765Z,4.28
2022-10-12T09:16:07.755Z,4.00
2022-10-12T09:18:41.617Z,4.45
2022-10-12T09:21:18.991Z,4.60
2022-10-12T09:23:48.044Z,5.03
2022-10-12T09:26:19.009Z,4.40
2022-10-12T09:28:51.778Z,4.40
2022-10-12T09:31:43.162Z,4.30
2022-10-12T09:34:15.432Z,4.20
2022-10-12T09:36:47.685Z,3.88
2022-10-12T09:39:23.480Z,4.13
2022-10-12T09:41:54.758Z,3.75
2022-10-12T09:44:34.530Z,4.10
2022-10-12T09:47:06.070Z,4.68
2022-10-12T09:49:45.349Z,4.05
2022-10-12T09:52:20.192Z,4.47
2022-10-12T09:54:53.882Z,3.53
2022-10-12T09:57:27.134Z,4.40
2022-10-12T09:59:56.748Z,4.13
2022-10-12T10:02:27.308Z,4.30
2022-10-12T10:04:56.341Z,4.40
2022-10-12T10:07:30.847Z,3.92
2022-10-12T10:12:49.701Z,3.30
2022-10-12T10:15:29.084Z,3.53
2022-10-12T10:18:00.595Z,3.95
2022-10-12T10:20:33.551Z,4.20
2022-10-12T10:23:05.670Z,4.60
2022-10-12T10:25:35.365Z,4.53
2022-10-12T10:28:24.309Z,3.47
2022-10-12T10:31:04.995Z,3.65
2022-10-12T10:33:35.505Z,3.50
2022-10-12T10:36:09.903Z,3.97
2022-10-12T10:38:57.873Z,3.85
2022-10-12T10:41:34.298Z,3.72
2022-10-12T10:44:02.676Z,3.38
2022-10-12T10:46:35.730Z,4.03
2022-10-12T10:49:07.503Z,3.40
2022-10-12T10:51:51.326Z,3.30
2022-10-12T10:54:29.691Z,3.63
2022-10-12T10:57:17.220Z,3.47
2022-10-12T10:59:54.813Z,3.30
2022-10-12T11:02:34.444Z,3.33
2022-10-12T11:05:14.971Z,3.30
2022-10-12T11:07:52.046Z,3.50
2022-10-12T11:10:29.427Z,3.28
2022-10-12T11:13:07.184Z,3.42
2022-10-12T11:15:45.400Z,3.78
2022-10-12T11:18:24.319Z,3.90
2022-10-12T11:20:58.660Z,3.40
2022-10-12T11:23:41.361Z,3.13
2022-10-12T11:26:23.444Z,3.63
2022-10-12T11:28:53.041Z,3.15
2022-10-12T11:31:27.156Z,3.08
2022-10-12T11:34:03.180Z,3.50
2022-10-12T11:36:34.418Z,3.47
2022-10-12T11:39:08.430Z,3.80
2022-10-12T11:42:09.577Z,3.63
2022-10-12T11:44:43.301Z,3.33
2022-10-12T11:47:18.806Z,3.88
2022-10-12T11:49:58.674Z,3.45
2022-10-12T11:52:37.075Z,3.50
2022-10-12T11:55:37.202Z,3.40
2022-10-12T11:58:18.975Z,3.00
2022-10-12T12:01:08.891Z,3.05
2022-10-12T12:04:36.466Z,3.47
2022-10-12T12:07:01.760Z,3.13
2022-10-12T12:09:40.380Z,3.33
2022-10-12T12:12:23.063Z,3.05
2022-10-12T12:15:08.063Z,3.40
2022-10-12T12:17:38.081Z,3.38
2022-10-12T12:21:06.047Z,2.50
2022-10-12T12:23:41.830Z,3.33
2022-10-12T12:26:19.283Z,3.75
2022-10-12T12:28:50.375Z,2.63
2022-10-12T12:31:28.933Z,3.15
2022-10-12T12:34:06.408Z,3.35
2022-10-12T12:36:38.005Z,3.38
2022-10-12T12:39:21.914Z,3.03
2022-10-12T12:41:59.056Z,3.20
2022-10-12T12:44:41.406Z,2.95
2022-10-12T12:47:46.502Z,2.75
2022-10-12T12:53:07.108Z,3.28
2022-10-12T12:56:01.030Z,3.38
2022-10-12T12:58:58.010Z,2.97
2022-10-12T13:02:01.657Z,3.35
2022-10-12T13:04:59.220Z,3.55
2022-10-12T13:08:04.634Z,3.08
2022-10-12T13:10:51.575Z,3.22
2022-10-12T13:13:45.877Z,2.75
2022-10-12T13:17:30.182Z,3.15
2022-10-12T13:19:27.598Z,2.78
2022-10-12T13:21:59.013Z,3.10
2022-10-12T13:24:33.997Z,3.28
2022-10-12T13:27:22.208Z,3.42
2022-10-12T13:29:58.587Z,3.38
2022-10-12T13:32:43.306Z,2.97
2022-10-12T13:38:02.378Z,2.83
2022-10-12T13:40:37.191Z,3.08
2022-10-12T13:43:35.007Z,3.65
2022-10-12T13:46:03.610Z,3.10
2022-10-12T13:48:58.253Z,2.70
2022-10-12T13:51:25.196Z,2.70
2022-10-12T13:53:54.385Z,2.78
2022-10-12T13:56:26.662Z,2.97
2022-10-12T13:59:00.016Z,2.97
2022-10-12T14:01:27.947Z,3.53
2022-10-12T14:04:05.317Z,3.05
2022-10-12T14:06:37.869Z,2.95
2022-10-12T14:09:15.826Z,2.75
2022-10-12T14:11:45.304Z,3.10
2022-10-12T14:14:24.940Z,3.13
2022-10-12T14:16:53.258Z,3.58
2022-10-12T14:19:33.861Z,3.63
2022-10-12T14:22:03.724Z,3.00
2022-10-12T14:24:36.351Z,3.35
2022-10-12T14:27:07.435Z,3.78
2022-10-12T14:29:43.641Z,3.38
2022-10-12T14:32:40.792Z,2.97
2022-10-12T14:35:23.649Z,3.05
2022-10-12T14:37:54.762Z,3.13
2022-10-12T14:40:41.807Z,3.13
2022-10-12T14:43:24.113Z,3.13
2022-10-12T14:45:52.842Z,3.20
2022-10-12T14:48:23.634Z,3.35
2022-10-12T14:50:52.396Z,2.65
2022-10-12T14:53:20.897Z,3.47
2022-10-12T14:55:52.378Z,3.10
2022-10-12T14:58:22.423Z,3.15
2022-10-12T15:00:50.264Z,2.95
2022-10-12T15:03:19.958Z,3.22
2022-10-12T15:05:47.672Z,3.72
2022-10-12T15:08:15.411Z,3.08
2022-10-12T15:10:43.595Z,2.78
2022-10-12T15:13:14.553Z,2.45
2022-10-12T15:15:46.781Z,2.55
2022-10-12T15:18:14.808Z,3.42
2022-10-12T15:20:46.894Z,3.10
2022-10-12T15:23:16.915Z,2.65
2022-10-12T15:25:50.534Z,3.22
2022-10-12T15:28:20.364Z,3.55
2022-10-12T15:31:15.407Z,3.55
2022-10-12T15:33:35.954Z,2.88
2022-10-12T15:36:03.729Z,3.08
2022-10-12T15:38:31.623Z,2.75
2022-10-12T15:40:59.385Z,3.22
2022-10-12T15:43:28.606Z,2.80
2022-10-12T15:45:57.298Z,2.88
2022-10-12T15:48:27.631Z,3.08
2022-10-12T15:50:55.704Z,3.25
2022-10-12T15:53:25.711Z,2.55
2022-10-12T15:55:54.895Z,2.65
2022-10-12T15:58:23.196Z,3.20
2022-10-12T16:00:52.231Z,2.80
2022-10-12T16:03:25.981Z,2.75
2022-10-12T16:05:54.495Z,3.17
2022-10-12T16:08:22.204Z,3.15
2022-10-12T16:10:50.555Z,2.85
2022-10-12T16:13:18.892Z,2.97
2022-10-12T16:15:46.846Z,3.30
2022-10-12T16:18:16.622Z,2.80
2022-10-12T16:20:47.618Z,2.78
2022-10-12T16:25:51.410Z,3.28
2022-10-12T16:28:19.467Z,3.38
2022-10-12T16:30:48.920Z,3.15
2022-10-12T16:33:19.299Z,2.75
2022-10-12T16:35:47.632Z,2.92
2022-10-12T16:38:15.842Z,2.80
2022-10-12T16:40:43.596Z,3.50
2022-10-12T16:43:11.709Z,3.00
2022-10-12T16:45:39.482Z,3.40
2022-10-12T16:48:07.607Z,2.70
2022-10-12T16:50:40.666Z,2.63
2022-10-12T16:53:09.185Z,2.97
2022-10-12T16:55:39.660Z,3.15
2022-10-12T16:58:07.533Z,3.50
2022-10-12T17:00:35.321Z,3.33
2022-10-12T17:03:03.059Z,3.15
2022-10-12T17:05:30.805Z,3.65
2022-10-12T17:08:01.589Z,3.28
2022-10-12T17:10:29.352Z,4.25
2022-10-12T17:12:57.134Z,3.53
2022-10-12T17:15:25.140Z,3.72
2022-10-12T17:17:53.958Z,3.35
2022-10-12T17:20:21.711Z,2.78
2022-10-12T17:22:49.458Z,3.40
2022-10-12T17:25:18.770Z,3.15
2022-10-12T17:27:46.519Z,3.15
2022-10-12T17:30:14.442Z,3.20
2022-10-12T17:32:42.167Z,3.58
2022-10-12T17:35:10.705Z,4.00
2022-10-12T17:37:38.411Z,3.60
2022-10-12T17:40:09.235Z,3.00
2022-10-12T17:42:38.417Z,3.53
2022-10-12T17:45:07.623Z,2.90
2022-10-12T17:47:35.448Z,2.95
2022-10-12T17:50:03.204Z,2.90
2022-10-12T17:52:30.925Z,3.67
2022-10-12T17:54:58.657Z,3.08
2022-10-12T17:57:26.409Z,4.60
2022-10-12T17:59:55.511Z,2.38
2022-10-12T18:02:23.410Z,3.38
2022-10-12T18:04:51.130Z,3.30
2022-10-12T18:07:19.345Z,3.58
2022-10-12T18:09:47.474Z,3.10
2022-10-12T18:12:15.557Z,3.30
2022-10-12T18:14:43.678Z,3.03
2022-10-12T18:17:12.702Z,3.20
2022-10-12T18:19:40.439Z,3.28
2022-10-12T18:22:08.186Z,3.72
2022-10-12T18:24:35.941Z,3.83
2022-10-12T18:27:03.757Z,3.85
2022-10-12T18:29:31.482Z,3.38
2022-10-12T18:31:59.461Z,3.55
2022-10-12T18:34:31.897Z,3.13
2022-10-12T18:37:02.091Z,3.42
2022-10-12T18:39:29.834Z,3.63
2022-10-12T18:41:57.742Z,3.25
2022-10-12T18:44:25.476Z,3.60
2022-10-12T18:46:53.604Z,3.75
2022-10-12T18:49:21.328Z,3.67
2022-10-12T18:51:51.844Z,3.35
2022-10-12T18:54:19.886Z,3.80
2022-10-12T18:56:48.220Z,3.08
2022-10-12T18:59:17.779Z,3.65
2022-10-12T19:01:46.550Z,3.42
2022-10-12T19:04:14.421Z,3.33
2022-10-12T19:06:43.799Z,2.92
2022-10-12T19:09:14.986Z,3.47
2022-10-12T19:11:42.830Z,3.67
2022-10-12T19:14:16.256Z,3.55
2022-10-12T19:16:45.171Z,3.60
2022-10-12T19:19:20.844Z,3.60
2022-10-12T19:21:49.921Z,3.72
2022-10-12T19:24:22.632Z,3.60
2022-10-12T19:26:50.392Z,3.40
2022-10-12T19:29:18.247Z,2.72
2022-10-12T19:31:49.811Z,2.67
2022-10-12T19:34:21.231Z,3.28
2022-10-12T19:36:49.385Z,2.95
2022-10-12T19:39:21.772Z,3.33
2022-10-12T19:41:51.543Z,3.40
2022-10-12T19:44:19.929Z,3.42
2022-10-12T19:46:49.178Z,3.60
2022-10-12T19:49:19.157Z,3.72
2022-10-12T19:51:47.838Z,3.40
2022-10-12T19:54:16.754Z,3.53
2022-10-12T19:56:46.179Z,3.38
2022-10-12T19:59:14.329Z,3.13
2022-10-12T20:01:47.601Z,3.45
2022-10-12T20:04:15.840Z,3.70
2022-10-12T20:06:43.840Z,3.78
2022-10-12T20:09:12.052Z,3.80
2022-10-12T20:11:39.840Z,3.40
2022-10-12T20:14:11.244Z,3.97
2022-10-12T20:16:38.993Z,3.45
2022-10-12T20:19:08.017Z,4.10
2022-10-12T20:21:37.234Z,3.47
2022-10-12T20:24:05.462Z,4.00
2022-10-12T20:26:33.238Z,4.07
2022-10-12T20:29:01.932Z,5.38
2022-10-12T20:31:31.044Z,5.03
2022-10-12T20:33:58.745Z,4.35
2022-10-12T20:36:29.754Z,4.05
2022-10-12T20:38:58.474Z,4.75
2022-10-12T20:41:27.530Z,4.53
2022-10-12T20:43:57.229Z,4.10
2022-10-12T20:46:25.805Z,4.82
2022-10-12T20:48:59.224Z,4.35
2022-10-12T20:51:30.928Z,4.97
2022-10-12T20:54:00.897Z,3.78
2022-10-12T20:56:29.159Z,4.40
2022-10-12T20:58:57.065Z,5.15
2022-10-12T21:01:26.846Z,4.28
2022-10-12T21:03:56.371Z,4.40
2022-10-12T21:06:24.966Z,4.25
2022-10-12T21:08:55.203Z,4.40
2022-10-12T21:11:23.531Z,4.10
2022-10-12T21:13:52.078Z,4.10
2022-10-12T21:16:20.522Z,3.92
2022-10-12T21:18:48.648Z,4.65
2022-10-12T21:21:20.208Z,4.43
2022-10-12T21:23:54.160Z,3.95
2022-10-12T21:26:24.355Z,4.40
2022-10-12T21:28:52.216Z,4.65
2022-10-12T21:31:20.915Z,4.70
2022-10-12T21:33:48.782Z,3.90
2022-10-12T21:36:21.784Z,3.83
2022-10-12T21:38:50.248Z,3.80
2022-10-12T21:41:20.651Z,4.85
2022-10-12T21:43:50.002Z,3.95
2022-10-12T21:46:20.748Z,4.50
2022-10-12T21:48:49.690Z,4.10
2022-10-12T21:51:20.672Z,4.13
2022-10-12T21:53:48.973Z,4.25
2022-10-12T21:56:19.297Z,5.22
2022-10-12T21:58:47.863Z,4.43
2022-10-12T22:01:18.136Z,4.15
2022-10-12T22:03:47.963Z,4.25
2022-10-12T22:06:20.325Z,4.18
2022-10-12T22:08:52.726Z,4.70
2022-10-12T22:11:21.731Z,4.45
2022-10-12T22:13:49.927Z,4.43
2022-10-12T22:16:19.992Z,4.05
2022-10-12T22:18:47.774Z,4.10
2022-10-12T22:21:19.340Z,3.90
2022-10-12T22:23:47.298Z,3.88
2022-10-12T22:26:20.326Z,3.92
2022-10-12T22:28:48.663Z,4.25
2022-10-12T22:31:20.279Z,4.22
2022-10-12T22:33:48.457Z,3.83
2022-10-12T22:36:18.006Z,3.67
2022-10-12T22:38:46.424Z,4.30
2022-10-12T22:41:17.211Z,3.72
2022-10-12T22:43:44.994Z,3.63
2022-10-12T22:46:13.193Z,4.43
2022-10-12T22:48:40.994Z,3.63
2022-10-12T22:51:10.323Z,4.03
2022-10-12T22:53:39.486Z,4.30
2022-10-12T22:56:14.152Z,3.80
2022-10-12T22:58:42.339Z,4.25
2022-10-12T23:01:13.413Z,4.63
2022-10-12T23:03:42.405Z,4.32
2022-10-12T23:06:11.721Z,3.85
2022-10-12T23:08:41.173Z,3.58
2022-10-12T23:11:13.399Z,3.83
2022-10-12T23:13:42.630Z,3.78
2022-10-12T23:16:17.952Z,4.30
2022-10-12T23:18:46.561Z,4.30
2022-10-12T23:21:17.445Z,4.20
2022-10-12T23:23:47.683Z,3.83
2022-10-12T23:26:19.243Z,4.25
2022-10-12T23:28:49.041Z,3.92
2022-10-12T23:31:20.602Z,3.30
2022-10-12T23:33:48.694Z,4.10
2022-10-12T23:36:18.807Z,3.95
2022-10-12T23:38:48.016Z,3.25
2022-10-12T23:41:15.820Z,3.78
2022-10-12T23:43:43.566Z,4.05
2022-10-12T23:46:13.335Z,3.88
2022-10-12T23:48:41.554Z,3.60
2022-10-12T23:51:10.445Z,4.15
2022-10-12T23:53:39.093Z,4.07
2022-10-12T23:56:08.689Z,3.85
2022-10-12T23:58:37.328Z,4.30
